sensor_id;sensor_type;location;lat;lon;timestamp;P1;durP1;ratioP1;P2;durP2;ratioP2
4794;SDS011;2411;47.060;15.064;2023-05-07T00:01:07;4.10;;;3.80;;
4794;SDS011;2411;47.060;15.064;2023-05-07T00:03:35;4.60;;;4.20;;
4794;SDS011;2411;47.060;15.064;2023-05-07T00:06:03;3.90;;;3.60;;
4794;SDS011;2411;47.060;15.064;2023-05-07T00:08:31;3.47;;;3.27;;
4794;SDS011;2411;47.060;15.064;2023-05-07T00:10:58;3.43;;;3.23;;
4794;SDS011;2411;47.060;15.064;2023-05-07T00:13:26;3.83;;;3.13;;
4794;SDS011;2411;47.060;15.064;2023-05-07T00:15:54;4.20;;;3.30;;
4794;SDS011;2411;47.060;15.064;2023-05-07T00:18:21;8.27;;;3.77;;
4794;SDS011;2411;47.060;15.064;2023-05-07T00:20:49;3.83;;;3.47;;
4794;SDS011;2411;47.060;15.064;2023-05-07T00:23:16;3.50;;;3.20;;
4794;SDS011;2411;47.060;15.064;2023-05-07T00:25:43;3.10;;;2.90;;
4794;SDS011;2411;47.060;15.064;2023-05-07T00:28:11;2.90;;;2.70;;
4794;SDS011;2411;47.060;15.064;2023-05-07T00:30:38;2.10;;;2.00;;
4794;SDS011;2411;47.060;15.064;2023-05-07T00:33:05;2.10;;;2.00;;
4794;SDS011;2411;47.060;15.064;2023-05-07T00:35:33;1.93;;;1.83;;
4794;SDS011;2411;47.060;15.064;2023-05-07T00:38:00;1.90;;;1.80;;
4794;SDS011;2411;47.060;15.064;2023-05-07T00:40:27;2.00;;;1.90;;
4794;SDS011;2411;47.060;15.064;2023-05-07T00:42:55;1.20;;;1.20;;
4794;SDS011;2411;47.060;15.064;2023-05-07T00:45:26;1.10;;;1.10;;
4794;SDS011;2411;47.060;15.064;2023-05-07T00:47:55;1.47;;;1.37;;
4794;SDS011;2411;47.060;15.064;2023-05-07T00:50:24;1.20;;;1.20;;
4794;SDS011;2411;47.060;15.064;2023-05-07T00:52:52;1.53;;;1.40;;
4794;SDS011;2411;47.060;15.064;2023-05-07T00:55:21;18.23;;;2.53;;
4794;SDS011;2411;47.060;15.064;2023-05-07T00:57:49;1.00;;;1.00;;
4794;SDS011;2411;47.060;15.064;2023-05-07T01:00:18;0.97;;;0.97;;
4794;SDS011;2411;47.060;15.064;2023-05-07T01:02:46;1.10;;;1.00;;
4794;SDS011;2411;47.060;15.064;2023-05-07T01:05:15;1.00;;;1.00;;
4794;SDS011;2411;47.060;15.064;2023-05-07T01:07:45;1.13;;;1.00;;
4794;SDS011;2411;47.060;15.064;2023-05-07T01:10:13;0.90;;;0.90;;
4794;SDS011;2411;47.060;15.064;2023-05-07T01:12:41;1.07;;;1.03;;
4794;SDS011;2411;47.060;15.064;2023-05-07T01:15:10;1.50;;;1.40;;
4794;SDS011;2411;47.060;15.064;2023-05-07T01:17:38;1.17;;;1.17;;
4794;SDS011;2411;47.060;15.064;2023-05-07T01:20:08;7.40;;;1.30;;
4794;SDS011;2411;47.060;15.064;2023-05-07T01:22:40;1.80;;;1.17;;
4794;SDS011;2411;47.060;15.064;2023-05-07T01:25:09;1.43;;;1.33;;
4794;SDS011;2411;47.060;15.064;2023-05-07T01:27:37;1.10;;;1.10;;
4794;SDS011;2411;47.060;15.064;2023-05-07T01:30:04;1.40;;;0.80;;
4794;SDS011;2411;47.060;15.064;2023-05-07T01:32:33;1.87;;;1.13;;
4794;SDS011;2411;47.060;15.064;2023-05-07T01:35:11;0.93;;;0.93;;
4794;SDS011;2411;47.060;15.064;2023-05-07T01:37:40;1.07;;;0.97;;
4794;SDS011;2411;47.060;15.064;2023-05-07T01:40:08;1.90;;;1.00;;
4794;SDS011;2411;47.060;15.064;2023-05-07T01:42:37;1.00;;;1.00;;
4794;SDS011;2411;47.060;15.064;2023-05-07T01:45:05;0.90;;;0.90;;
4794;SDS011;2411;47.060;15.064;2023-05-07T01:47:33;0.90;;;0.90;;
4794;SDS011;2411;47.060;15.064;2023-05-07T01:50:01;2.00;;;1.10;;
4794;SDS011;2411;47.060;15.064;2023-05-07T01:52:29;1.67;;;1.10;;
4794;SDS011;2411;47.060;15.064;2023-05-07T01:54:57;6.53;;;0.90;;
4794;SDS011;2411;47.060;15.064;2023-05-07T01:57:25;0.90;;;0.90;;
4794;SDS011;2411;47.060;15.064;2023-05-07T01:59:52;0.90;;;0.90;;
4794;SDS011;2411;47.060;15.064;2023-05-07T02:02:19;1.00;;;1.00;;
4794;SDS011;2411;47.060;15.064;2023-05-07T02:04:47;0.90;;;0.90;;
4794;SDS011;2411;47.060;15.064;2023-05-07T02:07:14;0.97;;;0.97;;
4794;SDS011;2411;47.060;15.064;2023-05-07T02:09:42;1.00;;;1.00;;
4794;SDS011;2411;47.060;15.064;2023-05-07T02:12:09;1.10;;;1.10;;
4794;SDS011;2411;47.060;15.064;2023-05-07T02:14:36;2.20;;;1.10;;
4794;SDS011;2411;47.060;15.064;2023-05-07T02:17:04;3.37;;;0.97;;
4794;SDS011;2411;47.060;15.064;2023-05-07T02:19:31;4.67;;;1.00;;
4794;SDS011;2411;47.060;15.064;2023-05-07T02:21:58;1.03;;;0.83;;
4794;SDS011;2411;47.060;15.064;2023-05-07T02:24:26;0.93;;;0.93;;
4794;SDS011;2411;47.060;15.064;2023-05-07T02:26:53;0.80;;;0.80;;
4794;SDS011;2411;47.060;15.064;2023-05-07T02:29:20;0.90;;;0.90;;
4794;SDS011;2411;47.060;15.064;2023-05-07T02:31:48;2.70;;;1.10;;
4794;SDS011;2411;47.060;15.064;2023-05-07T02:34:19;1.60;;;1.00;;
4794;SDS011;2411;47.060;15.064;2023-05-07T02:36:47;0.80;;;0.80;;
4794;SDS011;2411;47.060;15.064;2023-05-07T02:39:14;2.40;;;0.73;;
4794;SDS011;2411;47.060;15.064;2023-05-07T02:41:42;0.83;;;0.83;;
4794;SDS011;2411;47.060;15.064;2023-05-07T02:44:09;0.93;;;0.93;;
4794;SDS011;2411;47.060;15.064;2023-05-07T02:46:36;0.80;;;0.80;;
4794;SDS011;2411;47.060;15.064;2023-05-07T02:49:04;0.83;;;0.83;;
4794;SDS011;2411;47.060;15.064;2023-05-07T02:51:31;3.60;;;0.80;;
4794;SDS011;2411;47.060;15.064;2023-05-07T02:53:58;21.63;;;1.03;;
4794;SDS011;2411;47.060;15.064;2023-05-07T02:56:27;0.87;;;0.87;;
4794;SDS011;2411;47.060;15.064;2023-05-07T02:58:55;0.90;;;0.90;;
4794;SDS011;2411;47.060;15.064;2023-05-07T03:01:22;0.97;;;0.97;;
4794;SDS011;2411;47.060;15.064;2023-05-07T03:03:49;0.60;;;0.60;;
4794;SDS011;2411;47.060;15.064;2023-05-07T03:06:17;1.43;;;0.83;;
4794;SDS011;2411;47.060;15.064;2023-05-07T03:08:44;0.80;;;0.80;;
4794;SDS011;2411;47.060;15.064;2023-05-07T03:11:12;0.80;;;0.80;;
4794;SDS011;2411;47.060;15.064;2023-05-07T03:13:39;0.90;;;0.90;;
4794;SDS011;2411;47.060;15.064;2023-05-07T03:16:07;1.77;;;1.10;;
4794;SDS011;2411;47.060;15.064;2023-05-07T03:18:34;2.93;;;1.00;;
4794;SDS011;2411;47.060;15.064;2023-05-07T03:21:01;0.97;;;0.97;;
4794;SDS011;2411;47.060;15.064;2023-05-07T03:23:29;0.80;;;0.80;;
4794;SDS011;2411;47.060;15.064;2023-05-07T03:25:56;0.80;;;0.80;;
4794;SDS011;2411;47.060;15.064;2023-05-07T03:28:24;1.10;;;1.10;;
4794;SDS011;2411;47.060;15.064;2023-05-07T03:30:51;0.90;;;0.90;;
4794;SDS011;2411;47.060;15.064;2023-05-07T03:33:18;0.77;;;0.77;;
4794;SDS011;2411;47.060;15.064;2023-05-07T03:35:46;1.00;;;1.00;;
4794;SDS011;2411;47.060;15.064;2023-05-07T03:38:13;0.90;;;0.90;;
4794;SDS011;2411;47.060;15.064;2023-05-07T03:40:40;1.10;;;1.10;;
4794;SDS011;2411;47.060;15.064;2023-05-07T03:43:08;0.80;;;0.80;;
4794;SDS011;2411;47.060;15.064;2023-05-07T03:45:35;0.90;;;0.90;;
4794;SDS011;2411;47.060;15.064;2023-05-07T03:48:03;0.80;;;0.80;;
4794;SDS011;2411;47.060;15.064;2023-05-07T03:50:30;0.90;;;0.90;;
4794;SDS011;2411;47.060;15.064;2023-05-07T03:52:58;0.80;;;0.80;;
4794;SDS011;2411;47.060;15.064;2023-05-07T03:55:25;0.90;;;0.80;;
4794;SDS011;2411;47.060;15.064;2023-05-07T03:57:53;1.23;;;0.90;;
4794;SDS011;2411;47.060;15.064;2023-05-07T04:00:20;0.90;;;0.90;;
4794;SDS011;2411;47.060;15.064;2023-05-07T04:02:48;1.10;;;1.00;;
4794;SDS011;2411;47.060;15.064;2023-05-07T04:05:16;0.80;;;0.80;;
4794;SDS011;2411;47.060;15.064;2023-05-07T04:07:43;2.30;;;1.40;;
4794;SDS011;2411;47.060;15.064;2023-05-07T04:10:11;0.93;;;0.90;;
4794;SDS011;2411;47.060;15.064;2023-05-07T04:12:40;1.10;;;1.00;;
4794;SDS011;2411;47.060;15.064;2023-05-07T04:15:07;5.47;;;1.03;;
4794;SDS011;2411;47.060;15.064;2023-05-07T04:17:35;1.00;;;1.00;;
4794;SDS011;2411;47.060;15.064;2023-05-07T04:20:02;0.83;;;0.83;;
4794;SDS011;2411;47.060;15.064;2023-05-07T04:22:30;3.03;;;1.37;;
4794;SDS011;2411;47.060;15.064;2023-05-07T04:24:57;0.80;;;0.80;;
4794;SDS011;2411;47.060;15.064;2023-05-07T04:27:43;2.03;;;0.80;;
4794;SDS011;2411;47.060;15.064;2023-05-07T04:30:28;0.80;;;0.80;;
4794;SDS011;2411;47.060;15.064;2023-05-07T04:33:13;0.83;;;0.83;;
4794;SDS011;2411;47.060;15.064;2023-05-07T04:35:43;3.60;;;1.37;;
4794;SDS011;2411;47.060;15.064;2023-05-07T04:38:10;2.93;;;1.23;;
4794;SDS011;2411;47.060;15.064;2023-05-07T04:40:38;1.23;;;1.20;;
4794;SDS011;2411;47.060;15.064;2023-05-07T04:43:05;1.20;;;1.20;;
4794;SDS011;2411;47.060;15.064;2023-05-07T04:45:34;0.90;;;0.90;;
4794;SDS011;2411;47.060;15.064;2023-05-07T04:48:02;1.00;;;1.00;;
4794;SDS011;2411;47.060;15.064;2023-05-07T04:50:29;1.03;;;1.00;;
4794;SDS011;2411;47.060;15.064;2023-05-07T04:52:57;3.03;;;0.90;;
4794;SDS011;2411;47.060;15.064;2023-05-07T04:55:25;1.00;;;1.00;;
4794;SDS011;2411;47.060;15.064;2023-05-07T04:57:52;2.00;;;1.23;;
4794;SDS011;2411;47.060;15.064;2023-05-07T05:00:20;5.50;;;1.37;;
4794;SDS011;2411;47.060;15.064;2023-05-07T05:02:47;1.20;;;1.10;;
4794;SDS011;2411;47.060;15.064;2023-05-07T05:05:15;1.47;;;1.40;;
4794;SDS011;2411;47.060;15.064;2023-05-07T05:07:42;1.03;;;1.03;;
4794;SDS011;2411;47.060;15.064;2023-05-07T05:10:09;1.40;;;1.30;;
4794;SDS011;2411;47.060;15.064;2023-05-07T05:12:37;1.07;;;1.07;;
4794;SDS011;2411;47.060;15.064;2023-05-07T05:15:05;11.80;;;1.37;;
4794;SDS011;2411;47.060;15.064;2023-05-07T05:17:33;1.00;;;1.00;;
4794;SDS011;2411;47.060;15.064;2023-05-07T05:20:01;2.20;;;1.00;;
4794;SDS011;2411;47.060;15.064;2023-05-07T05:22:29;1.33;;;1.23;;
4794;SDS011;2411;47.060;15.064;2023-05-07T05:24:58;1.00;;;1.00;;
4794;SDS011;2411;47.060;15.064;2023-05-07T05:27:25;1.53;;;1.50;;
4794;SDS011;2411;47.060;15.064;2023-05-07T05:29:52;1.30;;;1.20;;
4794;SDS011;2411;47.060;15.064;2023-05-07T05:32:20;1.40;;;1.30;;
4794;SDS011;2411;47.060;15.064;2023-05-07T05:34:47;9.10;;;1.57;;
4794;SDS011;2411;47.060;15.064;2023-05-07T05:37:14;1.00;;;1.00;;
4794;SDS011;2411;47.060;15.064;2023-05-07T05:39:42;0.90;;;0.90;;
4794;SDS011;2411;47.060;15.064;2023-05-07T05:42:09;1.30;;;1.20;;
4794;SDS011;2411;47.060;15.064;2023-05-07T05:44:37;1.20;;;1.00;;
4794;SDS011;2411;47.060;15.064;2023-05-07T05:47:04;3.10;;;1.40;;
4794;SDS011;2411;47.060;15.064;2023-05-07T05:49:32;2.00;;;1.50;;
4794;SDS011;2411;47.060;15.064;2023-05-07T05:51:59;1.33;;;1.33;;
4794;SDS011;2411;47.060;15.064;2023-05-07T05:54:27;3.70;;;1.60;;
4794;SDS011;2411;47.060;15.064;2023-05-07T05:56:56;1.70;;;1.60;;
4794;SDS011;2411;47.060;15.064;2023-05-07T05:59:24;4.90;;;1.60;;
4794;SDS011;2411;47.060;15.064;2023-05-07T06:02:10;1.97;;;1.60;;
4794;SDS011;2411;47.060;15.064;2023-05-07T06:04:37;1.90;;;1.80;;
4794;SDS011;2411;47.060;15.064;2023-05-07T06:07:05;3.57;;;2.27;;
4794;SDS011;2411;47.060;15.064;2023-05-07T06:09:32;3.47;;;2.97;;
4794;SDS011;2411;47.060;15.064;2023-05-07T06:12:00;3.77;;;3.47;;
4794;SDS011;2411;47.060;15.064;2023-05-07T06:14:27;2.90;;;2.70;;
4794;SDS011;2411;47.060;15.064;2023-05-07T06:16:55;3.57;;;2.23;;
4794;SDS011;2411;47.060;15.064;2023-05-07T06:19:22;3.80;;;2.00;;
4794;SDS011;2411;47.060;15.064;2023-05-07T06:21:50;2.13;;;1.90;;
4794;SDS011;2411;47.060;15.064;2023-05-07T06:24:18;1.97;;;1.80;;
4794;SDS011;2411;47.060;15.064;2023-05-07T06:26:45;6.17;;;2.17;;
4794;SDS011;2411;47.060;15.064;2023-05-07T06:29:12;1.97;;;1.80;;
4794;SDS011;2411;47.060;15.064;2023-05-07T06:31:40;1.90;;;1.80;;
4794;SDS011;2411;47.060;15.064;2023-05-07T06:34:07;1.93;;;1.83;;
4794;SDS011;2411;47.060;15.064;2023-05-07T06:36:35;2.80;;;1.80;;
4794;SDS011;2411;47.060;15.064;2023-05-07T06:39:02;2.80;;;1.87;;
4794;SDS011;2411;47.060;15.064;2023-05-07T06:41:30;1.40;;;1.30;;
4794;SDS011;2411;47.060;15.064;2023-05-07T06:43:57;0.90;;;0.90;;
4794;SDS011;2411;47.060;15.064;2023-05-07T06:46:24;3.23;;;1.00;;
4794;SDS011;2411;47.060;15.064;2023-05-07T06:48:52;0.97;;;0.97;;
4794;SDS011;2411;47.060;15.064;2023-05-07T06:51:19;1.40;;;1.30;;
4794;SDS011;2411;47.060;15.064;2023-05-07T06:53:47;1.00;;;1.00;;
4794;SDS011;2411;47.060;15.064;2023-05-07T06:56:14;1.20;;;1.20;;
4794;SDS011;2411;47.060;15.064;2023-05-07T06:58:42;0.90;;;0.90;;
4794;SDS011;2411;47.060;15.064;2023-05-07T07:01:09;1.77;;;1.67;;
4794;SDS011;2411;47.060;15.064;2023-05-07T07:03:37;1.10;;;1.10;;
4794;SDS011;2411;47.060;15.064;2023-05-07T07:06:04;2.20;;;1.20;;
4794;SDS011;2411;47.060;15.064;2023-05-07T07:08:32;1.00;;;1.00;;
4794;SDS011;2411;47.060;15.064;2023-05-07T07:10:59;1.33;;;1.07;;
4794;SDS011;2411;47.060;15.064;2023-05-07T07:13:27;1.17;;;1.07;;
4794;SDS011;2411;47.060;15.064;2023-05-07T07:15:55;1.13;;;1.10;;
4794;SDS011;2411;47.060;15.064;2023-05-07T07:18:22;1.90;;;1.07;;
4794;SDS011;2411;47.060;15.064;2023-05-07T07:20:50;2.20;;;0.93;;
4794;SDS011;2411;47.060;15.064;2023-05-07T07:23:18;1.13;;;0.93;;
4794;SDS011;2411;47.060;15.064;2023-05-07T07:25:45;0.80;;;0.80;;
4794;SDS011;2411;47.060;15.064;2023-05-07T07:28:13;1.30;;;1.20;;
4794;SDS011;2411;47.060;15.064;2023-05-07T07:30:58;1.17;;;1.17;;
4794;SDS011;2411;47.060;15.064;2023-05-07T07:33:26;1.20;;;1.10;;
4794;SDS011;2411;47.060;15.064;2023-05-07T07:35:53;1.53;;;1.17;;
4794;SDS011;2411;47.060;15.064;2023-05-07T07:38:21;1.03;;;0.90;;
4794;SDS011;2411;47.060;15.064;2023-05-07T07:40:49;1.00;;;1.00;;
4794;SDS011;2411;47.060;15.064;2023-05-07T07:43:16;1.27;;;1.20;;
4794;SDS011;2411;47.060;15.064;2023-05-07T07:45:44;1.63;;;1.13;;
4794;SDS011;2411;47.060;15.064;2023-05-07T07:48:12;1.23;;;1.23;;
4794;SDS011;2411;47.060;15.064;2023-05-07T07:50:40;1.37;;;1.00;;
4794;SDS011;2411;47.060;15.064;2023-05-07T07:53:11;1.40;;;1.30;;
4794;SDS011;2411;47.060;15.064;2023-05-07T07:55:39;1.17;;;1.07;;
4794;SDS011;2411;47.060;15.064;2023-05-07T07:58:07;1.73;;;1.63;;
4794;SDS011;2411;47.060;15.064;2023-05-07T08:00:34;1.40;;;1.20;;
4794;SDS011;2411;47.060;15.064;2023-05-07T08:03:01;1.47;;;1.20;;
4794;SDS011;2411;47.060;15.064;2023-05-07T08:05:30;1.17;;;1.00;;
4794;SDS011;2411;47.060;15.064;2023-05-07T08:07:57;2.40;;;1.40;;
4794;SDS011;2411;47.060;15.064;2023-05-07T08:10:25;1.43;;;1.33;;
4794;SDS011;2411;47.060;15.064;2023-05-07T08:12:52;1.57;;;1.40;;
4794;SDS011;2411;47.060;15.064;2023-05-07T08:15:20;1.70;;;1.60;;
4794;SDS011;2411;47.060;15.064;2023-05-07T08:17:47;1.20;;;1.20;;
4794;SDS011;2411;47.060;15.064;2023-05-07T08:20:15;1.97;;;1.43;;
4794;SDS011;2411;47.060;15.064;2023-05-07T08:22:42;1.60;;;1.50;;
4794;SDS011;2411;47.060;15.064;2023-05-07T08:25:10;1.50;;;1.43;;
4794;SDS011;2411;47.060;15.064;2023-05-07T08:27:37;1.60;;;1.50;;
4794;SDS011;2411;47.060;15.064;2023-05-07T08:30:04;1.33;;;1.23;;
4794;SDS011;2411;47.060;15.064;2023-05-07T08:32:32;2.53;;;1.50;;
4794;SDS011;2411;47.060;15.064;2023-05-07T08:35:00;2.47;;;1.47;;
4794;SDS011;2411;47.060;15.064;2023-05-07T08:37:27;2.90;;;1.63;;
4794;SDS011;2411;47.060;15.064;2023-05-07T08:39:55;2.83;;;1.50;;
4794;SDS011;2411;47.060;15.064;2023-05-07T08:42:23;1.90;;;1.73;;
4794;SDS011;2411;47.060;15.064;2023-05-07T08:44:51;2.97;;;1.70;;
4794;SDS011;2411;47.060;15.064;2023-05-07T08:47:23;1.73;;;1.63;;
4794;SDS011;2411;47.060;15.064;2023-05-07T08:49:56;2.67;;;1.90;;
4794;SDS011;2411;47.060;15.064;2023-05-07T08:52:23;2.20;;;1.10;;
4794;SDS011;2411;47.060;15.064;2023-05-07T08:54:51;1.57;;;1.47;;
4794;SDS011;2411;47.060;15.064;2023-05-07T08:57:19;2.57;;;1.27;;
4794;SDS011;2411;47.060;15.064;2023-05-07T08:59:48;1.50;;;1.40;;
4794;SDS011;2411;47.060;15.064;2023-05-07T09:02:15;1.73;;;1.07;;
4794;SDS011;2411;47.060;15.064;2023-05-07T09:04:43;1.40;;;1.30;;
4794;SDS011;2411;47.060;15.064;2023-05-07T09:07:10;1.93;;;1.83;;
4794;SDS011;2411;47.060;15.064;2023-05-07T09:09:38;1.50;;;1.40;;
4794;SDS011;2411;47.060;15.064;2023-05-07T09:12:05;1.80;;;1.70;;
4794;SDS011;2411;47.060;15.064;2023-05-07T09:14:51;1.40;;;1.30;;
4794;SDS011;2411;47.060;15.064;2023-05-07T09:17:36;2.70;;;1.50;;
4794;SDS011;2411;47.060;15.064;2023-05-07T09:20:22;2.80;;;1.50;;
4794;SDS011;2411;47.060;15.064;2023-05-07T09:23:08;1.40;;;1.30;;
4794;SDS011;2411;47.060;15.064;2023-05-07T09:25:36;1.90;;;1.70;;
4794;SDS011;2411;47.060;15.064;2023-05-07T09:28:04;1.70;;;1.60;;
4794;SDS011;2411;47.060;15.064;2023-05-07T09:30:36;1.50;;;1.10;;
4794;SDS011;2411;47.060;15.064;2023-05-07T09:33:03;1.20;;;1.20;;
4794;SDS011;2411;47.060;15.064;2023-05-07T09:35:31;1.67;;;1.57;;
4794;SDS011;2411;47.060;15.064;2023-05-07T09:37:59;1.80;;;1.37;;
4794;SDS011;2411;47.060;15.064;2023-05-07T09:40:30;1.20;;;1.10;;
4794;SDS011;2411;47.060;15.064;2023-05-07T09:43:08;1.53;;;1.33;;
4794;SDS011;2411;47.060;15.064;2023-05-07T09:45:37;1.60;;;1.50;;
4794;SDS011;2411;47.060;15.064;2023-05-07T09:48:05;1.57;;;1.47;;
4794;SDS011;2411;47.060;15.064;2023-05-07T09:50:39;1.80;;;1.70;;
4794;SDS011;2411;47.060;15.064;2023-05-07T09:53:15;2.30;;;1.57;;
4794;SDS011;2411;47.060;15.064;2023-05-07T09:55:43;1.10;;;1.10;;
4794;SDS011;2411;47.060;15.064;2023-05-07T09:58:12;2.20;;;1.40;;
4794;SDS011;2411;47.060;15.064;2023-05-07T10:00:41;1.73;;;1.50;;
4794;SDS011;2411;47.060;15.064;2023-05-07T10:03:09;1.30;;;1.20;;
4794;SDS011;2411;47.060;15.064;2023-05-07T10:05:38;1.77;;;1.37;;
4794;SDS011;2411;47.060;15.064;2023-05-07T10:08:06;1.53;;;1.37;;
4794;SDS011;2411;47.060;15.064;2023-05-07T10:10:34;1.97;;;1.30;;
4794;SDS011;2411;47.060;15.064;2023-05-07T10:13:02;1.57;;;1.47;;
4794;SDS011;2411;47.060;15.064;2023-05-07T10:15:32;6.40;;;2.30;;
4794;SDS011;2411;47.060;15.064;2023-05-07T10:18:01;3.80;;;2.00;;
4794;SDS011;2411;47.060;15.064;2023-05-07T10:20:31;1.70;;;1.60;;
4794;SDS011;2411;47.060;15.064;2023-05-07T10:22:59;1.57;;;1.47;;
4794;SDS011;2411;47.060;15.064;2023-05-07T10:25:31;1.57;;;1.47;;
4794;SDS011;2411;47.060;15.064;2023-05-07T10:28:04;2.10;;;1.60;;
4794;SDS011;2411;47.060;15.064;2023-05-07T10:33:22;1.80;;;1.70;;
4794;SDS011;2411;47.060;15.064;2023-05-07T10:35:55;5.17;;;2.00;;
4794;SDS011;2411;47.060;15.064;2023-05-07T10:38:26;1.90;;;1.80;;
4794;SDS011;2411;47.060;15.064;2023-05-07T10:41:13;2.20;;;1.80;;
4794;SDS011;2411;47.060;15.064;2023-05-07T10:43:44;3.70;;;2.13;;
4794;SDS011;2411;47.060;15.064;2023-05-07T10:49:06;2.17;;;1.80;;
4794;SDS011;2411;47.060;15.064;2023-05-07T10:51:34;1.53;;;1.53;;
4794;SDS011;2411;47.060;15.064;2023-05-07T10:56:38;2.17;;;2.07;;
4794;SDS011;2411;47.060;15.064;2023-05-07T11:01:58;2.23;;;1.97;;
4794;SDS011;2411;47.060;15.064;2023-05-07T11:04:33;2.60;;;1.97;;
4794;SDS011;2411;47.060;15.064;2023-05-07T11:15:08;2.10;;;1.97;;
4794;SDS011;2411;47.060;15.064;2023-05-07T11:17:56;1.90;;;1.80;;
4794;SDS011;2411;47.060;15.064;2023-05-07T11:26:02;2.17;;;2.00;;
4794;SDS011;2411;47.060;15.064;2023-05-07T11:28:38;2.40;;;2.20;;
4794;SDS011;2411;47.060;15.064;2023-05-07T11:31:10;2.20;;;2.07;;
4794;SDS011;2411;47.060;15.064;2023-05-07T11:33:38;2.20;;;2.00;;
4794;SDS011;2411;47.060;15.064;2023-05-07T11:36:07;2.73;;;2.00;;
4794;SDS011;2411;47.060;15.064;2023-05-07T11:38:35;3.00;;;2.40;;
4794;SDS011;2411;47.060;15.064;2023-05-07T11:41:03;2.40;;;2.10;;
4794;SDS011;2411;47.060;15.064;2023-05-07T11:43:32;4.83;;;2.30;;
4794;SDS011;2411;47.060;15.064;2023-05-07T11:46:07;2.40;;;2.30;;
4794;SDS011;2411;47.060;15.064;2023-05-07T11:48:36;2.10;;;2.00;;
4794;SDS011;2411;47.060;15.064;2023-05-07T11:51:04;5.03;;;2.20;;
4794;SDS011;2411;47.060;15.064;2023-05-07T11:53:36;1.90;;;1.80;;
4794;SDS011;2411;47.060;15.064;2023-05-07T11:56:11;2.30;;;1.87;;
4794;SDS011;2411;47.060;15.064;2023-05-07T11:58:40;5.63;;;2.27;;
4794;SDS011;2411;47.060;15.064;2023-05-07T12:01:09;4.13;;;2.70;;
4794;SDS011;2411;47.060;15.064;2023-05-07T12:03:39;2.47;;;2.27;;
4794;SDS011;2411;47.060;15.064;2023-05-07T12:06:14;2.17;;;1.93;;
4794;SDS011;2411;47.060;15.064;2023-05-07T12:08:43;2.30;;;2.20;;
4794;SDS011;2411;47.060;15.064;2023-05-07T12:11:31;5.23;;;1.80;;
4794;SDS011;2411;47.060;15.064;2023-05-07T12:13:59;1.87;;;1.77;;
4794;SDS011;2411;47.060;15.064;2023-05-07T12:16:26;6.80;;;2.00;;
4794;SDS011;2411;47.060;15.064;2023-05-07T12:18:54;5.63;;;2.63;;
4794;SDS011;2411;47.060;15.064;2023-05-07T12:21:21;2.80;;;2.37;;
4794;SDS011;2411;47.060;15.064;2023-05-07T12:23:50;4.03;;;2.00;;
4794;SDS011;2411;47.060;15.064;2023-05-07T12:26:19;5.23;;;2.33;;
4794;SDS011;2411;47.060;15.064;2023-05-07T12:28:47;2.23;;;2.03;;
4794;SDS011;2411;47.060;15.064;2023-05-07T12:31:15;3.90;;;2.40;;
4794;SDS011;2411;47.060;15.064;2023-05-07T12:33:42;2.40;;;2.20;;
4794;SDS011;2411;47.060;15.064;2023-05-07T12:36:11;2.60;;;2.00;;
4794;SDS011;2411;47.060;15.064;2023-05-07T12:38:40;2.57;;;2.10;;
4794;SDS011;2411;47.060;15.064;2023-05-07T12:41:08;2.60;;;1.93;;
4794;SDS011;2411;47.060;15.064;2023-05-07T12:43:37;2.40;;;2.30;;
4794;SDS011;2411;47.060;15.064;2023-05-07T12:46:06;2.53;;;2.40;;
4794;SDS011;2411;47.060;15.064;2023-05-07T12:48:38;3.07;;;2.77;;
4794;SDS011;2411;47.060;15.064;2023-05-07T12:51:10;2.50;;;2.30;;
4794;SDS011;2411;47.060;15.064;2023-05-07T12:53:40;2.70;;;2.50;;
4794;SDS011;2411;47.060;15.064;2023-05-07T12:56:09;2.70;;;2.50;;
4794;SDS011;2411;47.060;15.064;2023-05-07T12:58:36;2.50;;;2.30;;
4794;SDS011;2411;47.060;15.064;2023-05-07T13:01:07;2.30;;;2.20;;
4794;SDS011;2411;47.060;15.064;2023-05-07T13:03:37;2.73;;;2.60;;
4794;SDS011;2411;47.060;15.064;2023-05-07T13:06:06;2.93;;;2.70;;
4794;SDS011;2411;47.060;15.064;2023-05-07T13:08:37;3.10;;;2.90;;
4794;SDS011;2411;47.060;15.064;2023-05-07T13:11:12;3.20;;;3.00;;
4794;SDS011;2411;47.060;15.064;2023-05-07T13:13:40;4.53;;;3.20;;
4794;SDS011;2411;47.060;15.064;2023-05-07T13:16:09;3.80;;;2.77;;
4794;SDS011;2411;47.060;15.064;2023-05-07T13:18:38;3.03;;;2.60;;
4794;SDS011;2411;47.060;15.064;2023-05-07T13:21:07;2.90;;;2.00;;
4794;SDS011;2411;47.060;15.064;2023-05-07T13:23:34;3.13;;;2.87;;
4794;SDS011;2411;47.060;15.064;2023-05-07T13:26:02;5.93;;;3.27;;
4794;SDS011;2411;47.060;15.064;2023-05-07T13:28:34;2.70;;;2.53;;
4794;SDS011;2411;47.060;15.064;2023-05-07T13:31:01;3.40;;;3.10;;
4794;SDS011;2411;47.060;15.064;2023-05-07T13:33:29;3.07;;;2.80;;
4794;SDS011;2411;47.060;15.064;2023-05-07T13:35:56;3.70;;;3.40;;
4794;SDS011;2411;47.060;15.064;2023-05-07T13:38:24;11.20;;;3.10;;
4794;SDS011;2411;47.060;15.064;2023-05-07T13:40:51;6.50;;;3.63;;
4794;SDS011;2411;47.060;15.064;2023-05-07T13:43:20;3.30;;;3.00;;
4794;SDS011;2411;47.060;15.064;2023-05-07T13:45:47;2.57;;;2.47;;
4794;SDS011;2411;47.060;15.064;2023-05-07T13:48:14;2.93;;;2.73;;
4794;SDS011;2411;47.060;15.064;2023-05-07T13:50:42;8.17;;;3.93;;
4794;SDS011;2411;47.060;15.064;2023-05-07T13:53:09;8.50;;;2.70;;
4794;SDS011;2411;47.060;15.064;2023-05-07T13:55:37;2.43;;;1.90;;
4794;SDS011;2411;47.060;15.064;2023-05-07T13:58:04;4.93;;;1.90;;
4794;SDS011;2411;47.060;15.064;2023-05-07T14:00:33;2.47;;;2.20;;
4794;SDS011;2411;47.060;15.064;2023-05-07T14:03:01;2.30;;;1.80;;
4794;SDS011;2411;47.060;15.064;2023-05-07T14:05:28;2.20;;;1.83;;
4794;SDS011;2411;47.060;15.064;2023-05-07T14:07:59;3.83;;;1.80;;
4794;SDS011;2411;47.060;15.064;2023-05-07T14:10:26;5.30;;;1.50;;
4794;SDS011;2411;47.060;15.064;2023-05-07T14:12:54;2.00;;;1.80;;
4794;SDS011;2411;47.060;15.064;2023-05-07T14:15:22;1.27;;;1.27;;
4794;SDS011;2411;47.060;15.064;2023-05-07T14:17:49;2.00;;;1.70;;
4794;SDS011;2411;47.060;15.064;2023-05-07T14:20:16;1.70;;;1.60;;
4794;SDS011;2411;47.060;15.064;2023-05-07T14:22:44;2.57;;;1.60;;
4794;SDS011;2411;47.060;15.064;2023-05-07T14:25:11;3.33;;;1.30;;
4794;SDS011;2411;47.060;15.064;2023-05-07T14:27:40;3.03;;;1.70;;
4794;SDS011;2411;47.060;15.064;2023-05-07T14:30:07;1.50;;;1.40;;
4794;SDS011;2411;47.060;15.064;2023-05-07T14:32:35;3.60;;;1.97;;
4794;SDS011;2411;47.060;15.064;2023-05-07T14:35:03;3.13;;;1.50;;
4794;SDS011;2411;47.060;15.064;2023-05-07T14:37:30;1.20;;;1.20;;
4794;SDS011;2411;47.060;15.064;2023-05-07T14:39:58;1.43;;;1.33;;
4794;SDS011;2411;47.060;15.064;2023-05-07T14:42:25;2.10;;;1.50;;
4794;SDS011;2411;47.060;15.064;2023-05-07T14:44:52;1.40;;;1.30;;
4794;SDS011;2411;47.060;15.064;2023-05-07T14:47:20;2.07;;;1.50;;
4794;SDS011;2411;47.060;15.064;2023-05-07T14:49:47;1.67;;;1.03;;
4794;SDS011;2411;47.060;15.064;2023-05-07T14:52:15;1.10;;;1.10;;
4794;SDS011;2411;47.060;15.064;2023-05-07T14:54:42;1.00;;;1.00;;
4794;SDS011;2411;47.060;15.064;2023-05-07T14:57:10;1.10;;;1.10;;
4794;SDS011;2411;47.060;15.064;2023-05-07T14:59:40;1.00;;;0.80;;
4794;SDS011;2411;47.060;15.064;2023-05-07T15:02:08;1.07;;;0.70;;
4794;SDS011;2411;47.060;15.064;2023-05-07T15:04:37;2.67;;;1.10;;
4794;SDS011;2411;47.060;15.064;2023-05-07T15:07:06;2.63;;;1.57;;
4794;SDS011;2411;47.060;15.064;2023-05-07T15:09:33;2.80;;;2.10;;
4794;SDS011;2411;47.060;15.064;2023-05-07T15:12:00;2.00;;;1.90;;
4794;SDS011;2411;47.060;15.064;2023-05-07T15:14:29;2.70;;;1.60;;
4794;SDS011;2411;47.060;15.064;2023-05-07T15:16:56;1.40;;;1.17;;
4794;SDS011;2411;47.060;15.064;2023-05-07T15:19:23;1.30;;;1.20;;
4794;SDS011;2411;47.060;15.064;2023-05-07T15:21:56;1.83;;;1.40;;
4794;SDS011;2411;47.060;15.064;2023-05-07T15:24:24;1.40;;;1.30;;
4794;SDS011;2411;47.060;15.064;2023-05-07T15:26:52;1.50;;;1.40;;
4794;SDS011;2411;47.060;15.064;2023-05-07T15:29:19;1.17;;;1.17;;
4794;SDS011;2411;47.060;15.064;2023-05-07T15:31:47;1.50;;;1.40;;
4794;SDS011;2411;47.060;15.064;2023-05-07T15:34:14;3.97;;;1.43;;